createdAt,value
2022-11-10T00:01:13.376Z,86.68
2022-11-10T00:03:59.689Z,86.79
2022-11-10T00:06:48.928Z,87.19
2022-11-10T00:09:35.475Z,85.52
2022-11-10T00:12:23.174Z,85.31
2022-11-10T00:15:29.004Z,83.21
2022-11-10T00:18:15.565Z,81.75
2022-11-10T00:21:07.214Z,81.83
2022-11-10T00:23:53.416Z,82.06
2022-11-10T00:26:39.745Z,82.90
2022-11-10T00:29:26.305Z,83.83
2022-11-10T00:32:12.674Z,84.31
2022-11-10T00:34:59.075Z,84.38
2022-11-10T00:37:45.365Z,83.83
2022-11-10T00:40:31.994Z,85.43
2022-11-10T00:43:21.295Z,84.57
2022-11-10T00:46:11.785Z,84.46
2022-11-10T00:48:58.254Z,82.83
2022-11-10T00:51:44.325Z,82.13
2022-11-10T00:54:30.940Z,84.07
2022-11-10T00:57:17.213Z,85.53
2022-11-10T01:00:04.871Z,86.72
2022-11-10T01:02:51.228Z,86.81
2022-11-10T01:05:38.604Z,85.57
2022-11-10T01:08:24.797Z,86.75
2022-11-10T01:11:10.966Z,86.48
2022-11-10T01:13:57.985Z,81.93
2022-11-10T01:16:44.315Z,81.48
2022-11-10T01:19:30.665Z,86.74
2022-11-10T01:22:17.276Z,88.90
2022-11-10T01:25:03.686Z,87.13
2022-11-10T01:27:50.785Z,82.67
2022-11-10T01:30:37.266Z,84.31
2022-11-10T01:33:23.771Z,85.26
2022-11-10T01:36:10.785Z,85.20
2022-11-10T01:38:57.006Z,85.52
2022-11-10T01:41:43.427Z,83.03
2022-11-10T01:44:29.917Z,82.75
2022-11-10T01:47:16.285Z,84.18
2022-11-10T01:50:02.905Z,87.94
2022-11-10T01:52:51.115Z,86.03
2022-11-10T01:55:39.724Z,84.87
2022-11-10T01:58:31.215Z,83.68
2022-11-10T02:01:17.968Z,84.88
2022-11-10T02:04:06.864Z,84.06
2022-11-10T02:06:53.860Z,85.10
2022-11-10T02:09:40.144Z,86.07
2022-11-10T02:12:38.158Z,85.88
2022-11-10T02:15:25.644Z,85.73
2022-11-10T02:18:12.236Z,82.59
2022-11-10T02:20:58.758Z,83.04
2022-11-10T02:23:50.285Z,84.39
2022-11-10T02:26:40.005Z,83.24
2022-11-10T02:29:26.785Z,82.54
2022-11-10T02:32:13.154Z,80.87
2022-11-10T02:34:59.361Z,81.93
2022-11-10T02:37:45.575Z,82.38
2022-11-10T02:40:31.735Z,84.44
2022-11-10T02:43:20.241Z,85.16
2022-11-10T02:46:07.043Z,87.68
2022-11-10T02:48:53.315Z,86.04
2022-11-10T02:51:39.776Z,85.61
2022-11-10T02:54:26.074Z,85.98
2022-11-10T02:57:12.145Z,84.90
2022-11-10T02:59:58.885Z,86.29
2022-11-10T03:02:45.115Z,85.60
2022-11-10T03:05:32.052Z,86.81
2022-11-10T03:08:18.475Z,85.44
2022-11-10T03:11:04.725Z,82.96
2022-11-10T03:14:01.428Z,83.49
2022-11-10T03:16:48.118Z,84.43
2022-11-10T03:19:34.393Z,83.02
2022-11-10T03:22:20.504Z,83.39
2022-11-10T03:25:08.044Z,82.18
2022-11-10T03:27:54.334Z,84.89
2022-11-10T03:30:41.219Z,84.06
2022-11-10T03:33:27.508Z,82.57
2022-11-10T03:36:13.995Z,83.85
2022-11-10T03:39:00.314Z,84.10
2022-11-10T03:41:46.629Z,84.54
2022-11-10T03:44:32.958Z,84.78
2022-11-10T03:47:19.854Z,84.38
2022-11-10T03:50:06.922Z,86.61
2022-11-10T03:52:53.136Z,86.10
2022-11-10T03:55:39.654Z,84.71
2022-11-10T03:58:25.742Z,85.12
2022-11-10T04:01:12.407Z,86.03
2022-11-10T04:03:58.614Z,85.32
2022-11-10T04:07:05.270Z,83.88
2022-11-10T04:09:51.509Z,84.22
2022-11-10T04:12:56.646Z,84.85
2022-11-10T04:15:43.176Z,85.43
2022-11-10T04:18:30.088Z,85.53
2022-11-10T04:21:16.306Z,84.81
2022-11-10T04:24:02.988Z,85.53
2022-11-10T04:26:49.999Z,86.11
2022-11-10T04:29:36.587Z,86.19
2022-11-10T04:32:22.975Z,85.25
2022-11-10T04:35:09.554Z,84.32
2022-11-10T04:37:56.003Z,83.87
2022-11-10T04:40:42.665Z,82.69
2022-11-10T04:43:29.237Z,84.48
2022-11-10T04:46:25.404Z,84.66
2022-11-10T04:49:11.989Z,81.67
2022-11-10T04:51:58.326Z,83.68
2022-11-10T04:54:44.368Z,83.16
2022-11-10T04:57:30.614Z,86.47
2022-11-10T05:00:17.735Z,83.92
2022-11-10T05:03:06.306Z,85.08
2022-11-10T05:05:52.898Z,83.60
2022-11-10T05:08:40.027Z,81.92
2022-11-10T05:11:26.292Z,82.78
2022-11-10T05:14:12.745Z,84.08
2022-11-10T05:16:58.944Z,81.85
2022-11-10T05:19:47.578Z,82.91
2022-11-10T05:22:33.945Z,81.81
2022-11-10T05:25:20.439Z,82.98
2022-11-10T05:28:07.763Z,84.88
2022-11-10T05:30:54.325Z,82.94
2022-11-10T05:33:40.815Z,85.22
2022-11-10T05:36:27.040Z,83.79
2022-11-10T05:39:13.386Z,81.04
2022-11-10T05:41:59.594Z,82.47
2022-11-10T05:44:45.980Z,83.43
2022-11-10T05:47:32.434Z,83.97
2022-11-10T05:50:19.796Z,83.07
2022-11-10T05:53:06.155Z,83.97
2022-11-10T05:55:52.606Z,82.81
2022-11-10T05:58:38.905Z,82.99
2022-11-10T06:01:25.483Z,84.88
2022-11-10T06:04:11.919Z,83.52
2022-11-10T06:06:58.510Z,83.32
2022-11-10T06:09:45.929Z,84.09
2022-11-10T06:12:31.989Z,82.55
2022-11-10T06:15:18.535Z,82.40
2022-11-10T06:18:05.063Z,83.37
2022-11-10T06:20:51.397Z,81.88
2022-11-10T06:23:37.545Z,81.68
2022-11-10T06:26:24.186Z,84.09
2022-11-10T06:29:10.415Z,82.29
2022-11-10T06:31:57.844Z,82.12
2022-11-10T06:34:44.176Z,83.58
2022-11-10T06:37:30.686Z,84.01
2022-11-10T06:40:17.488Z,83.64
2022-11-10T06:43:04.097Z,82.07
2022-11-10T06:45:50.254Z,82.88
2022-11-10T06:48:36.828Z,84.11
2022-11-10T06:51:23.014Z,83.14
2022-11-10T06:54:09.398Z,82.24
2022-11-10T06:56:55.805Z,81.12
2022-11-10T06:59:41.803Z,79.68
2022-11-10T07:02:28.314Z,83.72
2022-11-10T07:05:15.731Z,83.62
2022-11-10T07:08:06.637Z,82.50
2022-11-10T07:10:54.463Z,81.32
2022-11-10T07:13:40.694Z,81.76
2022-11-10T07:16:27.356Z,82.68
2022-11-10T07:19:13.503Z,81.34
2022-11-10T07:21:59.685Z,80.17
2022-11-10T07:24:46.433Z,81.59
2022-11-10T07:27:32.807Z,81.00
2022-11-10T07:30:19.258Z,80.89
2022-11-10T07:33:12.333Z,80.13
2022-11-10T07:36:01.338Z,82.48
2022-11-10T07:38:48.149Z,81.78
2022-11-10T07:41:34.596Z,82.57
2022-11-10T07:44:21.214Z,80.36
2022-11-10T07:47:07.674Z,81.71
2022-11-10T07:49:54.185Z,80.85
2022-11-10T07:52:40.527Z,79.49
2022-11-10T07:55:27.043Z,80.40
2022-11-10T07:58:15.216Z,79.68
2022-11-10T08:01:02.012Z,81.21
2022-11-10T08:03:48.470Z,81.55
2022-11-10T08:06:36.824Z,81.06
2022-11-10T08:09:23.578Z,79.55
2022-11-10T08:12:09.779Z,81.50
2022-11-10T08:14:56.386Z,81.61
2022-11-10T08:17:42.606Z,80.73
2022-11-10T08:20:29.659Z,78.54
2022-11-10T08:23:16.037Z,80.03
2022-11-10T08:26:02.576Z,77.48
2022-11-10T08:28:48.942Z,79.57
2022-11-10T08:31:35.337Z,78.74
2022-11-10T08:34:23.434Z,77.83
2022-11-10T08:37:10.217Z,77.78
2022-11-10T08:39:56.315Z,76.95
2022-11-10T08:42:43.255Z,76.23
2022-11-10T08:45:30.077Z,76.37
2022-11-10T08:48:20.954Z,78.68
2022-11-10T08:51:07.506Z,77.63
2022-11-10T08:53:53.842Z,77.23
2022-11-10T08:56:40.146Z,75.17
2022-11-10T08:59:26.728Z,74.66
2022-11-10T09:02:13.367Z,77.63
2022-11-10T09:04:59.915Z,77.84
2022-11-10T09:07:46.699Z,74.88
2022-11-10T09:10:34.926Z,76.00
2022-11-10T09:13:26.275Z,71.08
2022-11-10T09:16:16.145Z,70.79
2022-11-10T09:19:02.477Z,71.58
2022-11-10T09:21:48.961Z,71.45
2022-11-10T09:24:35.897Z,73.16
2022-11-10T09:27:22.413Z,75.64
2022-11-10T09:30:13.087Z,75.11
2022-11-10T09:33:03.839Z,74.10
2022-11-10T09:35:51.186Z,76.40
2022-11-10T09:38:38.137Z,78.01
2022-11-10T09:41:24.735Z,78.80
2022-11-10T09:44:17.146Z,78.24
2022-11-10T09:50:48.873Z,77.40
2022-11-10T09:54:05.456Z,77.77
2022-11-10T09:56:53.767Z,80.82
2022-11-10T09:59:40.612Z,80.94
2022-11-10T10:02:33.258Z,82.53
2022-11-10T10:06:02.676Z,78.42
2022-11-10T10:09:06.246Z,78.90
2022-11-10T10:12:18.718Z,78.60
2022-11-10T10:15:31.474Z,80.50
2022-11-10T10:18:22.242Z,77.10
2022-11-10T10:21:28.351Z,79.32
2022-11-10T10:24:21.793Z,78.11
2022-11-10T10:27:19.561Z,76.43
2022-11-10T10:30:14.026Z,76.29
2022-11-10T10:33:28.054Z,75.76
2022-11-10T10:36:18.036Z,75.75
2022-11-10T10:39:18.066Z,75.29
2022-11-10T10:42:10.127Z,75.25
2022-11-10T10:45:20.130Z,74.75
2022-11-10T10:48:24.591Z,74.64
2022-11-10T10:51:11.067Z,74.41
2022-11-10T10:53:57.335Z,74.79
2022-11-10T10:56:43.775Z,71.39
2022-11-10T10:59:30.165Z,69.89
2022-11-10T11:02:34.399Z,68.34
2022-11-10T11:05:20.736Z,69.88
2022-11-10T11:08:18.498Z,68.99
2022-11-10T11:11:12.313Z,67.20
2022-11-10T11:14:27.385Z,70.46
2022-11-10T11:17:19.489Z,68.12
2022-11-10T11:20:15.161Z,69.01
2022-11-10T11:23:26.984Z,70.95
2022-11-10T11:26:26.356Z,67.84
2022-11-10T11:29:15.627Z,69.04
2022-11-10T11:32:25.256Z,69.15
2022-11-10T11:35:50.924Z,68.97
2022-11-10T11:38:46.386Z,69.70
2022-11-10T11:41:39.794Z,71.51
2022-11-10T11:45:14.806Z,70.45
2022-11-10T11:48:17.034Z,72.27
2022-11-10T11:51:12.363Z,72.59
2022-11-10T11:54:20.054Z,72.71
2022-11-10T11:57:15.003Z,71.81
2022-11-10T12:00:18.462Z,74.25
2022-11-10T12:03:33.362Z,75.35
2022-11-10T12:06:19.444Z,74.17
2022-11-10T12:09:08.552Z,75.07
2022-11-10T12:11:57.977Z,75.90
2022-11-10T12:15:05.475Z,75.66
2022-11-10T12:18:29.854Z,74.99
2022-11-10T12:21:44.717Z,74.47
2022-11-10T12:24:57.386Z,72.17
2022-11-10T12:27:48.641Z,71.89
2022-11-10T12:30:36.294Z,73.60
2022-11-10T12:33:31.879Z,73.23
2022-11-10T12:36:20.059Z,72.95
2022-11-10T12:39:23.593Z,74.05
2022-11-10T12:42:18.338Z,73.63
2022-11-10T12:45:41.793Z,74.66
2022-11-10T12:48:36.555Z,75.06
2022-11-10T12:51:48.632Z,74.15
2022-11-10T12:54:35.805Z,75.37
2022-11-10T12:57:27.453Z,74.70
2022-11-10T13:00:26.723Z,76.59
2022-11-10T13:03:35.224Z,76.53
2022-11-10T13:06:38.313Z,76.53
2022-11-10T13:09:28.644Z,76.00
2022-11-10T13:12:19.274Z,75.50
2022-11-10T13:15:37.554Z,73.30
2022-11-10T13:18:31.087Z,74.42
2022-11-10T13:21:17.682Z,75.38
2022-11-10T13:24:13.497Z,75.48
2022-11-10T13:27:04.511Z,75.53
2022-11-10T13:29:56.396Z,76.51
2022-11-10T13:32:43.423Z,75.97
2022-11-10T13:35:29.763Z,74.73
2022-11-10T13:38:39.165Z,74.62
2022-11-10T13:41:26.744Z,74.88
2022-11-10T13:44:26.356Z,74.50
2022-11-10T13:47:35.277Z,75.16
2022-11-10T13:50:36.535Z,75.04
2022-11-10T13:53:41.146Z,73.59
2022-11-10T13:56:47.868Z,75.55
2022-11-10T13:59:45.290Z,74.72
2022-11-10T14:02:40.859Z,74.43
2022-11-10T14:05:42.321Z,74.77
2022-11-10T14:08:30.080Z,73.39
2022-11-10T14:11:29.684Z,75.22
2022-11-10T14:14:44.897Z,75.46
2022-11-10T14:17:36.409Z,76.29
2022-11-10T14:20:42.773Z,77.58
2022-11-10T14:23:44.014Z,76.34
2022-11-10T14:26:59.306Z,75.31
2022-11-10T14:29:48.292Z,76.82
2022-11-10T14:32:36.089Z,77.34
2022-11-10T14:35:28.617Z,77.84
2022-11-10T14:38:21.998Z,76.97
2022-11-10T14:41:17.106Z,77.24
2022-11-10T14:44:12.092Z,79.44
2022-11-10T14:47:14.284Z,77.29
2022-11-10T14:50:13.960Z,76.29
2022-11-10T14:53:24.666Z,76.48
2022-11-10T14:56:18.974Z,75.69
2022-11-10T14:59:06.956Z,77.09
2022-11-10T15:01:56.913Z,76.26
2022-11-10T15:04:46.207Z,78.45
2022-11-10T15:07:33.277Z,76.61
2022-11-10T15:10:21.715Z,78.29
2022-11-10T15:13:14.438Z,77.77
2022-11-10T15:16:37.824Z,77.25
2022-11-10T15:19:40.332Z,77.86
2022-11-10T15:22:37.182Z,77.71
2022-11-10T15:25:26.822Z,77.84
2022-11-10T15:28:15.186Z,78.85
2022-11-10T15:31:05.235Z,77.61
2022-11-10T15:33:58.062Z,79.71
2022-11-10T15:36:44.626Z,80.73
2022-11-10T15:39:31.411Z,79.15
2022-11-10T15:42:23.377Z,77.39
2022-11-10T15:45:10.498Z,82.03
2022-11-10T15:47:57.400Z,80.34
2022-11-10T15:50:46.375Z,79.16
2022-11-10T15:53:40.583Z,77.72
2022-11-10T15:56:27.414Z,79.15
2022-11-10T15:59:14.048Z,79.62
2022-11-10T16:02:01.323Z,78.88
2022-11-10T16:04:51.677Z,78.39
2022-11-10T16:07:42.001Z,79.26
2022-11-10T16:10:30.115Z,81.67
2022-11-10T16:13:27.312Z,81.22
2022-11-10T16:16:18.212Z,80.60
2022-11-10T16:19:08.236Z,79.63
2022-11-10T16:21:57.688Z,78.97
2022-11-10T16:24:47.322Z,80.16
2022-11-10T16:27:39.906Z,80.79
2022-11-10T16:30:33.430Z,79.97
2022-11-10T16:33:25.255Z,79.18
2022-11-10T16:36:32.413Z,79.48
2022-11-10T16:39:19.177Z,81.08
2022-11-10T16:42:06.185Z,79.48
2022-11-10T16:44:52.803Z,80.92
2022-11-10T16:47:39.552Z,83.06
2022-11-10T16:50:35.753Z,78.48
2022-11-10T16:53:29.027Z,79.17
2022-11-10T16:56:17.292Z,79.21
2022-11-10T16:59:04.943Z,79.48
2022-11-10T17:01:53.513Z,80.50
2022-11-10T17:04:40.262Z,80.24
2022-11-10T17:07:28.246Z,79.19
2022-11-10T17:21:51.399Z,77.33
2022-11-10T17:24:38.538Z,77.33
2022-11-10T17:27:27.129Z,80.86
2022-11-10T17:30:15.329Z,79.08
2022-11-10T17:33:05.269Z,79.14
2022-11-10T17:35:52.937Z,78.92
2022-11-10T17:38:40.647Z,78.15
2022-11-10T17:41:26.956Z,80.00
2022-11-10T17:44:14.819Z,77.87
2022-11-10T17:47:01.332Z,81.63
2022-11-10T17:49:47.991Z,79.85
2022-11-10T17:52:34.391Z,79.90
2022-11-10T17:55:31.152Z,80.98
2022-11-10T17:58:21.004Z,80.17
2022-11-10T18:01:19.250Z,82.78
2022-11-10T18:04:06.034Z,79.15
2022-11-10T18:06:52.965Z,77.99
2022-11-10T18:09:40.654Z,83.28
2022-11-10T18:12:27.907Z,82.04
2022-11-10T18:15:16.159Z,81.09
2022-11-10T18:18:02.645Z,80.69
2022-11-10T18:20:52.031Z,81.26
2022-11-10T18:23:41.091Z,82.42
2022-11-10T18:26:29.268Z,81.86
2022-11-10T18:29:16.057Z,83.44
2022-11-10T18:32:03.426Z,84.69
2022-11-10T18:34:50.417Z,84.52
2022-11-10T18:37:39.249Z,83.38
2022-11-10T18:40:25.696Z,84.69
2022-11-10T18:43:12.336Z,83.99
2022-11-10T18:45:58.967Z,82.97
2022-11-10T18:48:46.477Z,84.02
2022-11-10T18:51:33.635Z,84.93
2022-11-10T18:54:20.180Z,85.42
2022-11-10T18:57:06.322Z,86.52
2022-11-10T18:59:52.838Z,86.76
2022-11-10T19:02:40.385Z,85.60
2022-11-10T19:05:29.902Z,87.14
2022-11-10T19:08:16.840Z,85.36
2022-11-10T19:11:17.163Z,85.78
2022-11-10T19:14:03.835Z,84.10
2022-11-10T19:16:54.385Z,84.28
2022-11-10T19:19:40.895Z,84.38
2022-11-10T19:22:27.696Z,83.93
2022-11-10T19:25:14.319Z,84.61
2022-11-10T19:28:01.796Z,84.51
2022-11-10T19:30:48.265Z,84.74
2022-11-10T19:33:36.704Z,84.36
2022-11-10T19:36:24.897Z,83.33
2022-11-10T19:39:11.106Z,84.08
2022-11-10T19:41:57.399Z,83.17
2022-11-10T19:44:43.964Z,83.27
2022-11-10T19:47:31.309Z,83.53
2022-11-10T19:50:18.160Z,85.13
2022-11-10T19:53:05.035Z,84.75
2022-11-10T19:55:51.767Z,85.33
2022-11-10T19:58:39.446Z,85.80
2022-11-10T20:01:26.811Z,86.71
2022-11-10T20:04:14.313Z,85.64
2022-11-10T20:07:19.083Z,85.42
2022-11-10T20:10:06.490Z,86.72
2022-11-10T20:12:52.894Z,86.26
2022-11-10T20:15:42.650Z,86.36
2022-11-10T20:18:29.735Z,87.86
2022-11-10T20:21:18.095Z,85.50
2022-11-10T20:24:04.654Z,86.61
2022-11-10T20:26:51.028Z,86.91
2022-11-10T20:29:37.857Z,86.18
2022-11-10T20:32:25.452Z,86.11
2022-11-10T20:35:11.887Z,84.88
2022-11-10T20:37:58.780Z,83.98
2022-11-10T20:40:45.403Z,84.88
2022-11-10T20:43:34.104Z,84.47
2022-11-10T20:46:48.191Z,86.79
2022-11-10T20:49:28.507Z,86.59
2022-11-10T20:52:15.160Z,87.24
2022-11-10T20:55:02.251Z,87.95
2022-11-10T20:57:48.748Z,86.89
2022-11-10T21:00:35.535Z,84.98
2022-11-10T21:03:23.164Z,84.76
2022-11-10T21:06:09.950Z,83.36
2022-11-10T21:08:57.354Z,83.39
2022-11-10T21:12:02.600Z,83.53
2022-11-10T21:14:49.040Z,83.33
2022-11-10T21:17:38.077Z,85.75
2022-11-10T21:20:26.993Z,84.60
2022-11-10T21:23:14.365Z,84.29
2022-11-10T21:26:01.018Z,85.03
2022-11-10T21:28:47.874Z,84.69
2022-11-10T21:31:34.355Z,84.82
2022-11-10T21:34:20.395Z,83.60
2022-11-10T21:37:07.126Z,83.64
2022-11-10T21:39:53.961Z,82.55
2022-11-10T21:42:40.812Z,82.52
2022-11-10T21:45:27.376Z,82.02
2022-11-10T21:48:13.939Z,82.48
2022-11-10T21:51:04.172Z,85.00
2022-11-10T21:53:50.515Z,83.59
2022-11-10T21:56:37.070Z,84.20
2022-11-10T21:59:23.364Z,84.29
2022-11-10T22:02:10.882Z,83.94
2022-11-10T22:04:57.374Z,81.79
2022-11-10T22:07:43.917Z,81.11
2022-11-10T22:10:49.409Z,82.49
2022-11-10T22:13:54.854Z,82.65
2022-11-10T22:17:08.137Z,84.33
2022-11-10T22:19:55.229Z,84.36
2022-11-10T22:22:41.760Z,84.11
2022-11-10T22:25:28.423Z,84.31
2022-11-10T22:28:14.676Z,84.68
2022-11-10T22:31:03.376Z,85.89
2022-11-10T22:33:50.033Z,87.29
2022-11-10T22:36:36.289Z,85.49
2022-11-10T22:39:22.666Z,86.91
2022-11-10T22:42:30.642Z,88.89
2022-11-10T22:45:17.303Z,89.28
2022-11-10T22:48:22.510Z,89.66
2022-11-10T22:51:08.911Z,87.52
2022-11-10T22:53:55.554Z,87.21
2022-11-10T22:56:42.583Z,86.95
2022-11-10T22:59:29.044Z,87.81
2022-11-10T23:02:15.198Z,85.81
2022-11-10T23:05:01.901Z,86.78
2022-11-10T23:07:48.783Z,85.82
2022-11-10T23:10:35.064Z,84.76
2022-11-10T23:13:21.500Z,84.99
2022-11-10T23:16:08.873Z,85.62
2022-11-10T23:18:56.854Z,84.01
2022-11-10T23:21:43.483Z,83.88
2022-11-10T23:24:30.695Z,83.27
2022-11-10T23:27:17.194Z,82.75
2022-11-10T23:30:03.882Z,86.05
2022-11-10T23:32:50.483Z,84.92
2022-11-10T23:35:36.793Z,84.29
2022-11-10T23:38:23.014Z,82.78
2022-11-10T23:41:13.744Z,84.35
2022-11-10T23:44:00.214Z,83.74
2022-11-10T23:46:46.632Z,85.12
2022-11-10T23:49:32.785Z,83.50
2022-11-10T23:52:19.367Z,84.37
2022-11-10T23:55:06.263Z,84.11
2022-11-10T23:57:52.764Z,83.91
